sensor_id;sensor_type;location;lat;lon;timestamp;P1;durP1;ratioP1;P2;durP2;ratioP2
45368;SDS011;51342;55.250;37.668;2023-11-19T00:02:06;14.47;;;6.17;;
45368;SDS011;51342;55.250;37.668;2023-11-19T00:04:39;14.33;;;6.57;;
45368;SDS011;51342;55.250;37.668;2023-11-19T00:07:10;10.87;;;5.60;;
45368;SDS011;51342;55.250;37.668;2023-11-19T00:09:44;13.33;;;6.13;;
45368;SDS011;51342;55.250;37.668;2023-11-19T00:12:15;11.57;;;5.80;;
45368;SDS011;51342;55.250;37.668;2023-11-19T00:14:46;12.63;;;6.63;;
45368;SDS011;51342;55.250;37.668;2023-11-19T00:17:18;13.57;;;5.80;;
45368;SDS011;51342;55.250;37.668;2023-11-19T00:19:49;13.43;;;6.13;;
45368;SDS011;51342;55.250;37.668;2023-11-19T00:22:22;15.20;;;6.20;;
45368;SDS011;51342;55.250;37.668;2023-11-19T00:24:53;16.27;;;6.73;;
45368;SDS011;51342;55.250;37.668;2023-11-19T00:27:25;12.40;;;5.50;;
45368;SDS011;51342;55.250;37.668;2023-11-19T00:29:57;13.60;;;6.53;;
45368;SDS011;51342;55.250;37.668;2023-11-19T00:32:28;15.80;;;6.80;;
45368;SDS011;51342;55.250;37.668;2023-11-19T00:35:00;14.33;;;6.03;;
45368;SDS011;51342;55.250;37.668;2023-11-19T00:37:32;12.27;;;6.87;;
45368;SDS011;51342;55.250;37.668;2023-11-19T00:40:03;15.77;;;6.97;;
45368;SDS011;51342;55.250;37.668;2023-11-19T00:42:36;15.20;;;7.00;;
45368;SDS011;51342;55.250;37.668;2023-11-19T00:45:09;16.57;;;5.90;;
45368;SDS011;51342;55.250;37.668;2023-11-19T00:47:41;14.63;;;7.27;;
45368;SDS011;51342;55.250;37.668;2023-11-19T00:50:13;12.20;;;6.57;;
45368;SDS011;51342;55.250;37.668;2023-11-19T00:52:44;14.17;;;7.00;;
45368;SDS011;51342;55.250;37.668;2023-11-19T00:55:16;12.93;;;6.57;;
45368;SDS011;51342;55.250;37.668;2023-11-19T00:57:48;11.60;;;6.43;;
45368;SDS011;51342;55.250;37.668;2023-11-19T01:00:19;13.53;;;6.83;;
45368;SDS011;51342;55.250;37.668;2023-11-19T01:02:54;14.27;;;7.03;;
45368;SDS011;51342;55.250;37.668;2023-11-19T01:05:26;15.90;;;6.87;;
45368;SDS011;51342;55.250;37.668;2023-11-19T01:07:58;13.23;;;6.60;;
45368;SDS011;51342;55.250;37.668;2023-11-19T01:10:29;14.97;;;6.10;;
45368;SDS011;51342;55.250;37.668;2023-11-19T01:13:01;17.30;;;7.50;;
45368;SDS011;51342;55.250;37.668;2023-11-19T01:15:34;13.77;;;6.87;;
45368;SDS011;51342;55.250;37.668;2023-11-19T01:18:05;13.23;;;7.10;;
45368;SDS011;51342;55.250;37.668;2023-11-19T01:20:39;18.33;;;7.80;;
45368;SDS011;51342;55.250;37.668;2023-11-19T01:23:10;12.43;;;6.70;;
45368;SDS011;51342;55.250;37.668;2023-11-19T01:25:42;13.93;;;7.83;;
45368;SDS011;51342;55.250;37.668;2023-11-19T01:28:13;15.47;;;7.57;;
45368;SDS011;51342;55.250;37.668;2023-11-19T01:30:45;15.00;;;7.47;;
45368;SDS011;51342;55.250;37.668;2023-11-19T01:33:16;15.83;;;7.80;;
45368;SDS011;51342;55.250;37.668;2023-11-19T01:35:47;17.00;;;8.10;;
45368;SDS011;51342;55.250;37.668;2023-11-19T01:38:19;17.73;;;8.33;;
45368;SDS011;51342;55.250;37.668;2023-11-19T01:40:50;18.43;;;8.67;;
45368;SDS011;51342;55.250;37.668;2023-11-19T01:46:06;19.63;;;8.27;;
45368;SDS011;51342;55.250;37.668;2023-11-19T01:48:41;18.73;;;9.03;;
45368;SDS011;51342;55.250;37.668;2023-11-19T01:51:16;15.17;;;7.73;;
45368;SDS011;51342;55.250;37.668;2023-11-19T01:53:48;16.33;;;8.10;;
45368;SDS011;51342;55.250;37.668;2023-11-19T01:56:20;22.30;;;9.43;;
45368;SDS011;51342;55.250;37.668;2023-11-19T01:58:53;19.20;;;9.07;;
45368;SDS011;51342;55.250;37.668;2023-11-19T02:01:27;24.73;;;9.40;;
45368;SDS011;51342;55.250;37.668;2023-11-19T02:03:58;16.13;;;8.30;;
45368;SDS011;51342;55.250;37.668;2023-11-19T02:06:30;19.27;;;8.30;;
45368;SDS011;51342;55.250;37.668;2023-11-19T02:09:04;22.40;;;9.17;;
45368;SDS011;51342;55.250;37.668;2023-11-19T02:11:41;14.60;;;7.83;;
45368;SDS011;51342;55.250;37.668;2023-11-19T02:14:13;20.23;;;9.40;;
45368;SDS011;51342;55.250;37.668;2023-11-19T02:16:44;19.33;;;8.47;;
45368;SDS011;51342;55.250;37.668;2023-11-19T02:19:15;15.07;;;7.77;;
45368;SDS011;51342;55.250;37.668;2023-11-19T02:21:49;16.90;;;7.93;;
45368;SDS011;51342;55.250;37.668;2023-11-19T02:24:22;18.20;;;8.27;;
45368;SDS011;51342;55.250;37.668;2023-11-19T02:29:29;18.60;;;8.17;;
45368;SDS011;51342;55.250;37.668;2023-11-19T02:32:00;16.80;;;8.30;;
45368;SDS011;51342;55.250;37.668;2023-11-19T02:34:34;15.67;;;8.53;;
45368;SDS011;51342;55.250;37.668;2023-11-19T02:37:05;18.07;;;8.87;;
45368;SDS011;51342;55.250;37.668;2023-11-19T02:39:37;17.80;;;8.57;;
45368;SDS011;51342;55.250;37.668;2023-11-19T02:42:08;20.10;;;9.33;;
45368;SDS011;51342;55.250;37.668;2023-11-19T02:44:43;18.07;;;9.30;;
45368;SDS011;51342;55.250;37.668;2023-11-19T02:47:16;17.60;;;9.27;;
45368;SDS011;51342;55.250;37.668;2023-11-19T02:49:48;18.87;;;9.10;;
45368;SDS011;51342;55.250;37.668;2023-11-19T02:52:19;18.63;;;9.20;;
45368;SDS011;51342;55.250;37.668;2023-11-19T02:54:51;19.90;;;9.20;;
45368;SDS011;51342;55.250;37.668;2023-11-19T02:57:22;19.20;;;9.40;;
45368;SDS011;51342;55.250;37.668;2023-11-19T02:59:55;16.70;;;8.43;;
45368;SDS011;51342;55.250;37.668;2023-11-19T03:02:27;18.07;;;8.80;;
45368;SDS011;51342;55.250;37.668;2023-11-19T03:05:04;16.80;;;8.90;;
45368;SDS011;51342;55.250;37.668;2023-11-19T03:07:36;18.63;;;9.43;;
45368;SDS011;51342;55.250;37.668;2023-11-19T03:10:08;18.43;;;8.87;;
45368;SDS011;51342;55.250;37.668;2023-11-19T03:12:40;18.80;;;9.53;;
45368;SDS011;51342;55.250;37.668;2023-11-19T03:15:12;16.67;;;8.23;;
45368;SDS011;51342;55.250;37.668;2023-11-19T03:17:44;19.73;;;9.90;;
45368;SDS011;51342;55.250;37.668;2023-11-19T03:20:15;20.07;;;9.33;;
45368;SDS011;51342;55.250;37.668;2023-11-19T03:22:48;19.90;;;9.53;;
45368;SDS011;51342;55.250;37.668;2023-11-19T03:25:21;21.47;;;9.43;;
45368;SDS011;51342;55.250;37.668;2023-11-19T03:27:53;22.77;;;9.43;;
45368;SDS011;51342;55.250;37.668;2023-11-19T03:30:24;18.37;;;9.43;;
45368;SDS011;51342;55.250;37.668;2023-11-19T03:32:56;18.43;;;9.47;;
45368;SDS011;51342;55.250;37.668;2023-11-19T03:35:28;18.57;;;9.70;;
45368;SDS011;51342;55.250;37.668;2023-11-19T03:38:00;21.30;;;10.23;;
45368;SDS011;51342;55.250;37.668;2023-11-19T03:40:32;18.77;;;9.93;;
45368;SDS011;51342;55.250;37.668;2023-11-19T03:43:03;19.97;;;9.80;;
45368;SDS011;51342;55.250;37.668;2023-11-19T03:45:35;21.93;;;10.37;;
45368;SDS011;51342;55.250;37.668;2023-11-19T03:48:07;18.77;;;9.83;;
45368;SDS011;51342;55.250;37.668;2023-11-19T03:50:38;21.73;;;10.43;;
45368;SDS011;51342;55.250;37.668;2023-11-19T03:53:11;17.60;;;10.57;;
45368;SDS011;51342;55.250;37.668;2023-11-19T03:55:42;21.47;;;10.93;;
45368;SDS011;51342;55.250;37.668;2023-11-19T03:58:14;20.57;;;10.07;;
45368;SDS011;51342;55.250;37.668;2023-11-19T04:00:46;23.30;;;10.40;;
45368;SDS011;51342;55.250;37.668;2023-11-19T04:03:17;20.77;;;10.40;;
45368;SDS011;51342;55.250;37.668;2023-11-19T04:05:50;21.37;;;10.50;;
45368;SDS011;51342;55.250;37.668;2023-11-19T04:08:22;21.77;;;11.63;;
45368;SDS011;51342;55.250;37.668;2023-11-19T04:10:53;23.53;;;12.40;;
45368;SDS011;51342;55.250;37.668;2023-11-19T04:13:25;21.97;;;11.67;;
45368;SDS011;51342;55.250;37.668;2023-11-19T04:15:56;23.43;;;12.40;;
45368;SDS011;51342;55.250;37.668;2023-11-19T04:18:28;26.93;;;12.83;;
45368;SDS011;51342;55.250;37.668;2023-11-19T04:20:59;25.03;;;13.47;;
45368;SDS011;51342;55.250;37.668;2023-11-19T04:23:31;27.73;;;13.33;;
45368;SDS011;51342;55.250;37.668;2023-11-19T04:26:02;25.80;;;13.30;;
45368;SDS011;51342;55.250;37.668;2023-11-19T04:28:35;24.83;;;13.07;;
45368;SDS011;51342;55.250;37.668;2023-11-19T04:31:06;27.33;;;12.97;;
45368;SDS011;51342;55.250;37.668;2023-11-19T04:33:39;25.50;;;12.80;;
45368;SDS011;51342;55.250;37.668;2023-11-19T04:36:11;24.87;;;12.93;;
45368;SDS011;51342;55.250;37.668;2023-11-19T04:38:42;20.53;;;13.17;;
45368;SDS011;51342;55.250;37.668;2023-11-19T04:41:14;25.07;;;12.73;;
45368;SDS011;51342;55.250;37.668;2023-11-19T04:43:45;28.10;;;14.10;;
45368;SDS011;51342;55.250;37.668;2023-11-19T04:46:16;25.87;;;13.10;;
45368;SDS011;51342;55.250;37.668;2023-11-19T04:48:48;29.23;;;12.90;;
45368;SDS011;51342;55.250;37.668;2023-11-19T04:51:19;27.53;;;13.43;;
45368;SDS011;51342;55.250;37.668;2023-11-19T04:53:50;28.40;;;14.53;;
45368;SDS011;51342;55.250;37.668;2023-11-19T04:56:22;26.83;;;14.73;;
45368;SDS011;51342;55.250;37.668;2023-11-19T04:58:54;29.07;;;13.47;;
45368;SDS011;51342;55.250;37.668;2023-11-19T05:01:25;24.20;;;13.30;;
45368;SDS011;51342;55.250;37.668;2023-11-19T05:03:57;29.07;;;13.73;;
45368;SDS011;51342;55.250;37.668;2023-11-19T05:06:31;25.73;;;13.77;;
45368;SDS011;51342;55.250;37.668;2023-11-19T05:09:03;30.00;;;13.73;;
45368;SDS011;51342;55.250;37.668;2023-11-19T05:11:35;29.07;;;13.87;;
45368;SDS011;51342;55.250;37.668;2023-11-19T05:14:07;26.77;;;13.83;;
45368;SDS011;51342;55.250;37.668;2023-11-19T05:16:40;28.57;;;13.70;;
45368;SDS011;51342;55.250;37.668;2023-11-19T05:19:12;27.20;;;14.80;;
45368;SDS011;51342;55.250;37.668;2023-11-19T05:21:43;25.17;;;13.80;;
45368;SDS011;51342;55.250;37.668;2023-11-19T05:24:14;28.70;;;13.60;;
45368;SDS011;51342;55.250;37.668;2023-11-19T05:26:46;27.07;;;13.30;;
45368;SDS011;51342;55.250;37.668;2023-11-19T05:29:17;32.30;;;14.23;;
45368;SDS011;51342;55.250;37.668;2023-11-19T05:31:49;20.73;;;11.73;;
45368;SDS011;51342;55.250;37.668;2023-11-19T05:34:20;28.17;;;13.43;;
45368;SDS011;51342;55.250;37.668;2023-11-19T05:36:52;26.50;;;13.57;;
45368;SDS011;51342;55.250;37.668;2023-11-19T05:39:23;26.10;;;14.40;;
45368;SDS011;51342;55.250;37.668;2023-11-19T05:41:55;28.13;;;13.80;;
45368;SDS011;51342;55.250;37.668;2023-11-19T05:44:27;26.13;;;13.10;;
45368;SDS011;51342;55.250;37.668;2023-11-19T05:46:58;25.77;;;14.70;;
45368;SDS011;51342;55.250;37.668;2023-11-19T05:49:29;27.77;;;15.87;;
45368;SDS011;51342;55.250;37.668;2023-11-19T05:52:01;29.87;;;15.00;;
45368;SDS011;51342;55.250;37.668;2023-11-19T05:54:34;26.37;;;14.13;;
45368;SDS011;51342;55.250;37.668;2023-11-19T05:57:08;25.33;;;15.13;;
45368;SDS011;51342;55.250;37.668;2023-11-19T05:59:40;24.03;;;13.93;;
45368;SDS011;51342;55.250;37.668;2023-11-19T06:02:12;22.63;;;12.40;;
45368;SDS011;51342;55.250;37.668;2023-11-19T06:04:43;25.40;;;13.47;;
45368;SDS011;51342;55.250;37.668;2023-11-19T06:07:18;30.33;;;14.70;;
45368;SDS011;51342;55.250;37.668;2023-11-19T06:09:50;24.80;;;13.50;;
45368;SDS011;51342;55.250;37.668;2023-11-19T06:12:21;25.83;;;13.57;;
45368;SDS011;51342;55.250;37.668;2023-11-19T06:14:53;29.23;;;14.63;;
45368;SDS011;51342;55.250;37.668;2023-11-19T06:17:24;26.80;;;14.37;;
45368;SDS011;51342;55.250;37.668;2023-11-19T06:19:55;28.60;;;14.47;;
45368;SDS011;51342;55.250;37.668;2023-11-19T06:22:27;24.53;;;13.80;;
45368;SDS011;51342;55.250;37.668;2023-11-19T06:24:58;25.73;;;13.93;;
45368;SDS011;51342;55.250;37.668;2023-11-19T06:27:31;24.70;;;14.33;;
45368;SDS011;51342;55.250;37.668;2023-11-19T06:30:03;25.70;;;13.27;;
45368;SDS011;51342;55.250;37.668;2023-11-19T06:32:34;23.87;;;13.77;;
45368;SDS011;51342;55.250;37.668;2023-11-19T06:35:06;23.63;;;13.20;;
45368;SDS011;51342;55.250;37.668;2023-11-19T06:37:38;23.33;;;13.10;;
45368;SDS011;51342;55.250;37.668;2023-11-19T06:40:10;24.33;;;13.00;;
45368;SDS011;51342;55.250;37.668;2023-11-19T06:42:43;27.33;;;13.60;;
45368;SDS011;51342;55.250;37.668;2023-11-19T06:45:14;23.13;;;13.53;;
45368;SDS011;51342;55.250;37.668;2023-11-19T06:47:46;25.40;;;14.43;;
45368;SDS011;51342;55.250;37.668;2023-11-19T06:50:17;27.10;;;13.27;;
45368;SDS011;51342;55.250;37.668;2023-11-19T06:52:50;24.10;;;14.40;;
45368;SDS011;51342;55.250;37.668;2023-11-19T06:55:21;26.80;;;13.27;;
45368;SDS011;51342;55.250;37.668;2023-11-19T06:57:52;25.50;;;13.67;;
45368;SDS011;51342;55.250;37.668;2023-11-19T07:00:24;23.50;;;13.57;;
45368;SDS011;51342;55.250;37.668;2023-11-19T07:02:55;25.07;;;13.50;;
45368;SDS011;51342;55.250;37.668;2023-11-19T07:05:28;25.03;;;13.63;;
45368;SDS011;51342;55.250;37.668;2023-11-19T07:08:01;24.97;;;13.10;;
45368;SDS011;51342;55.250;37.668;2023-11-19T07:10:32;26.30;;;14.37;;
45368;SDS011;51342;55.250;37.668;2023-11-19T07:13:04;24.60;;;13.80;;
45368;SDS011;51342;55.250;37.668;2023-11-19T07:15:37;22.20;;;12.47;;
45368;SDS011;51342;55.250;37.668;2023-11-19T07:18:08;23.90;;;13.57;;
45368;SDS011;51342;55.250;37.668;2023-11-19T07:20:39;19.97;;;12.47;;
45368;SDS011;51342;55.250;37.668;2023-11-19T07:23:11;22.17;;;12.50;;
45368;SDS011;51342;55.250;37.668;2023-11-19T07:25:43;22.00;;;12.20;;
45368;SDS011;51342;55.250;37.668;2023-11-19T07:28:17;24.40;;;13.33;;
45368;SDS011;51342;55.250;37.668;2023-11-19T07:30:49;22.47;;;12.87;;
45368;SDS011;51342;55.250;37.668;2023-11-19T07:33:21;24.63;;;13.50;;
45368;SDS011;51342;55.250;37.668;2023-11-19T07:35:52;24.97;;;13.97;;
45368;SDS011;51342;55.250;37.668;2023-11-19T07:38:23;24.70;;;12.53;;
45368;SDS011;51342;55.250;37.668;2023-11-19T07:40:55;23.93;;;13.10;;
45368;SDS011;51342;55.250;37.668;2023-11-19T07:43:26;24.93;;;14.03;;
45368;SDS011;51342;55.250;37.668;2023-11-19T07:45:58;23.70;;;13.53;;
45368;SDS011;51342;55.250;37.668;2023-11-19T07:48:30;28.10;;;13.97;;
45368;SDS011;51342;55.250;37.668;2023-11-19T07:51:01;27.20;;;15.17;;
45368;SDS011;51342;55.250;37.668;2023-11-19T07:53:32;27.70;;;14.13;;
45368;SDS011;51342;55.250;37.668;2023-11-19T07:56:04;27.07;;;14.47;;
45368;SDS011;51342;55.250;37.668;2023-11-19T07:58:36;26.07;;;14.50;;
45368;SDS011;51342;55.250;37.668;2023-11-19T08:01:07;25.73;;;13.90;;
45368;SDS011;51342;55.250;37.668;2023-11-19T08:03:40;25.17;;;14.63;;
45368;SDS011;51342;55.250;37.668;2023-11-19T08:06:11;24.20;;;14.17;;
45368;SDS011;51342;55.250;37.668;2023-11-19T08:08:42;25.17;;;14.93;;
45368;SDS011;51342;55.250;37.668;2023-11-19T08:11:14;29.67;;;15.37;;
45368;SDS011;51342;55.250;37.668;2023-11-19T08:13:46;30.00;;;15.83;;
45368;SDS011;51342;55.250;37.668;2023-11-19T08:16:17;29.57;;;15.63;;
45368;SDS011;51342;55.250;37.668;2023-11-19T08:18:48;27.90;;;14.93;;
45368;SDS011;51342;55.250;37.668;2023-11-19T08:21:20;26.17;;;15.87;;
45368;SDS011;51342;55.250;37.668;2023-11-19T08:23:53;27.47;;;16.00;;
45368;SDS011;51342;55.250;37.668;2023-11-19T08:26:24;33.50;;;15.27;;
45368;SDS011;51342;55.250;37.668;2023-11-19T08:28:56;31.37;;;16.93;;
45368;SDS011;51342;55.250;37.668;2023-11-19T08:31:28;27.47;;;15.17;;
45368;SDS011;51342;55.250;37.668;2023-11-19T08:34:00;28.63;;;15.83;;
45368;SDS011;51342;55.250;37.668;2023-11-19T08:36:31;26.90;;;15.60;;
45368;SDS011;51342;55.250;37.668;2023-11-19T08:39:03;27.67;;;15.20;;
45368;SDS011;51342;55.250;37.668;2023-11-19T08:41:34;26.47;;;15.97;;
45368;SDS011;51342;55.250;37.668;2023-11-19T08:44:05;30.57;;;16.63;;
45368;SDS011;51342;55.250;37.668;2023-11-19T08:46:37;27.40;;;15.30;;
45368;SDS011;51342;55.250;37.668;2023-11-19T08:49:10;28.57;;;16.07;;
45368;SDS011;51342;55.250;37.668;2023-11-19T08:51:42;29.23;;;16.03;;
45368;SDS011;51342;55.250;37.668;2023-11-19T08:54:13;25.20;;;15.63;;
45368;SDS011;51342;55.250;37.668;2023-11-19T08:56:45;26.10;;;14.83;;
45368;SDS011;51342;55.250;37.668;2023-11-19T08:59:16;29.73;;;16.23;;
45368;SDS011;51342;55.250;37.668;2023-11-19T09:01:48;26.57;;;15.97;;
45368;SDS011;51342;55.250;37.668;2023-11-19T09:04:20;28.57;;;15.10;;
45368;SDS011;51342;55.250;37.668;2023-11-19T09:06:54;24.90;;;15.00;;
45368;SDS011;51342;55.250;37.668;2023-11-19T09:09:26;25.77;;;14.23;;
45368;SDS011;51342;55.250;37.668;2023-11-19T09:11:58;24.67;;;13.77;;
45368;SDS011;51342;55.250;37.668;2023-11-19T09:14:29;20.90;;;12.90;;
45368;SDS011;51342;55.250;37.668;2023-11-19T09:17:01;21.57;;;12.60;;
45368;SDS011;51342;55.250;37.668;2023-11-19T09:19:32;23.77;;;11.87;;
45368;SDS011;51342;55.250;37.668;2023-11-19T09:22:05;20.07;;;12.13;;
45368;SDS011;51342;55.250;37.668;2023-11-19T09:24:37;22.73;;;12.50;;
45368;SDS011;51342;55.250;37.668;2023-11-19T09:27:09;20.20;;;11.03;;
45368;SDS011;51342;55.250;37.668;2023-11-19T09:29:40;23.97;;;11.93;;
45368;SDS011;51342;55.250;37.668;2023-11-19T09:32:12;21.97;;;12.33;;
45368;SDS011;51342;55.250;37.668;2023-11-19T09:34:43;21.17;;;12.20;;
45368;SDS011;51342;55.250;37.668;2023-11-19T09:37:14;21.10;;;12.53;;
45368;SDS011;51342;55.250;37.668;2023-11-19T09:39:46;22.57;;;13.07;;
45368;SDS011;51342;55.250;37.668;2023-11-19T09:42:17;21.67;;;13.47;;
45368;SDS011;51342;55.250;37.668;2023-11-19T09:44:49;21.73;;;12.27;;
45368;SDS011;51342;55.250;37.668;2023-11-19T09:47:22;18.93;;;12.30;;
45368;SDS011;51342;55.250;37.668;2023-11-19T09:49:54;19.00;;;11.17;;
45368;SDS011;51342;55.250;37.668;2023-11-19T09:52:25;19.10;;;11.40;;
45368;SDS011;51342;55.250;37.668;2023-11-19T09:54:57;23.80;;;13.07;;
45368;SDS011;51342;55.250;37.668;2023-11-19T09:57:28;22.63;;;13.10;;
45368;SDS011;51342;55.250;37.668;2023-11-19T10:00:03;20.43;;;12.17;;
45368;SDS011;51342;55.250;37.668;2023-11-19T10:02:36;22.73;;;12.90;;
45368;SDS011;51342;55.250;37.668;2023-11-19T10:05:08;22.53;;;13.40;;
45368;SDS011;51342;55.250;37.668;2023-11-19T10:07:41;20.27;;;11.10;;
45368;SDS011;51342;55.250;37.668;2023-11-19T10:10:13;21.37;;;11.30;;
45368;SDS011;51342;55.250;37.668;2023-11-19T10:12:50;21.20;;;12.17;;
45368;SDS011;51342;55.250;37.668;2023-11-19T10:15:23;22.27;;;12.50;;
45368;SDS011;51342;55.250;37.668;2023-11-19T10:17:57;22.87;;;12.50;;
45368;SDS011;51342;55.250;37.668;2023-11-19T10:20:29;22.83;;;13.60;;
45368;SDS011;51342;55.250;37.668;2023-11-19T10:23:06;21.90;;;12.63;;
45368;SDS011;51342;55.250;37.668;2023-11-19T10:25:39;23.50;;;13.07;;
45368;SDS011;51342;55.250;37.668;2023-11-19T10:28:11;19.60;;;11.60;;
45368;SDS011;51342;55.250;37.668;2023-11-19T10:30:42;18.50;;;11.07;;
45368;SDS011;51342;55.250;37.668;2023-11-19T10:33:14;20.73;;;11.53;;
45368;SDS011;51342;55.250;37.668;2023-11-19T10:35:54;23.27;;;12.27;;
45368;SDS011;51342;55.250;37.668;2023-11-19T10:38:27;19.65;;;10.98;;
45368;SDS011;51342;55.250;37.668;2023-11-19T10:40:59;20.90;;;10.93;;
45368;SDS011;51342;55.250;37.668;2023-11-19T10:43:30;22.23;;;11.77;;
45368;SDS011;51342;55.250;37.668;2023-11-19T10:46:12;21.27;;;12.47;;
45368;SDS011;51342;55.250;37.668;2023-11-19T10:48:44;21.17;;;12.67;;
45368;SDS011;51342;55.250;37.668;2023-11-19T10:51:19;21.57;;;12.27;;
45368;SDS011;51342;55.250;37.668;2023-11-19T10:53:54;21.80;;;13.33;;
45368;SDS011;51342;55.250;37.668;2023-11-19T10:56:38;21.30;;;11.77;;
45368;SDS011;51342;55.250;37.668;2023-11-19T10:59:14;21.77;;;12.87;;
45368;SDS011;51342;55.250;37.668;2023-11-19T11:01:48;19.10;;;11.23;;
45368;SDS011;51342;55.250;37.668;2023-11-19T11:04:24;20.57;;;12.17;;
45368;SDS011;51342;55.250;37.668;2023-11-19T11:06:58;25.20;;;12.60;;
45368;SDS011;51342;55.250;37.668;2023-11-19T11:09:30;20.23;;;11.57;;
45368;SDS011;51342;55.250;37.668;2023-11-19T11:12:03;21.40;;;12.20;;
45368;SDS011;51342;55.250;37.668;2023-11-19T11:14:37;21.43;;;12.47;;
45368;SDS011;51342;55.250;37.668;2023-11-19T11:17:11;19.77;;;12.00;;
45368;SDS011;51342;55.250;37.668;2023-11-19T11:19:45;20.00;;;11.67;;
45368;SDS011;51342;55.250;37.668;2023-11-19T11:22:17;22.07;;;13.10;;
45368;SDS011;51342;55.250;37.668;2023-11-19T11:25:33;22.13;;;12.97;;
45368;SDS011;51342;55.250;37.668;2023-11-19T11:30:54;24.10;;;15.00;;
45368;SDS011;51342;55.250;37.668;2023-11-19T11:33:41;25.30;;;14.90;;
45368;SDS011;51342;55.250;37.668;2023-11-19T11:36:19;28.77;;;15.80;;
45368;SDS011;51342;55.250;37.668;2023-11-19T11:38:53;29.50;;;15.87;;
45368;SDS011;51342;55.250;37.668;2023-11-19T11:41:29;27.57;;;15.33;;
45368;SDS011;51342;55.250;37.668;2023-11-19T11:44:01;30.10;;;16.17;;
45368;SDS011;51342;55.250;37.668;2023-11-19T11:49:05;27.90;;;16.67;;
45368;SDS011;51342;55.250;37.668;2023-11-19T11:57:02;27.73;;;15.97;;
45368;SDS011;51342;55.250;37.668;2023-11-19T12:02:22;26.83;;;15.38;;
45368;SDS011;51342;55.250;37.668;2023-11-19T12:04:53;29.30;;;15.33;;
45368;SDS011;51342;55.250;37.668;2023-11-19T12:07:25;26.47;;;15.40;;
45368;SDS011;51342;55.250;37.668;2023-11-19T12:10:06;27.63;;;16.03;;
45368;SDS011;51342;55.250;37.668;2023-11-19T12:12:39;27.57;;;15.73;;
45368;SDS011;51342;55.250;37.668;2023-11-19T12:15:12;27.00;;;15.50;;
45368;SDS011;51342;55.250;37.668;2023-11-19T12:17:49;31.13;;;15.80;;
45368;SDS011;51342;55.250;37.668;2023-11-19T12:20:22;29.50;;;16.13;;
45368;SDS011;51342;55.250;37.668;2023-11-19T12:22:58;25.80;;;15.43;;
45368;SDS011;51342;55.250;37.668;2023-11-19T12:25:36;27.10;;;14.03;;
45368;SDS011;51342;55.250;37.668;2023-11-19T12:28:11;25.63;;;14.90;;
45368;SDS011;51342;55.250;37.668;2023-11-19T12:30:44;27.30;;;15.17;;
45368;SDS011;51342;55.250;37.668;2023-11-19T12:33:16;24.90;;;13.23;;
45368;SDS011;51342;55.250;37.668;2023-11-19T12:35:48;28.93;;;16.97;;
45368;SDS011;51342;55.250;37.668;2023-11-19T12:38:23;26.73;;;14.87;;
45368;SDS011;51342;55.250;37.668;2023-11-19T12:41:05;31.50;;;16.37;;
45368;SDS011;51342;55.250;37.668;2023-11-19T12:43:44;31.37;;;18.07;;
45368;SDS011;51342;55.250;37.668;2023-11-19T12:48:53;25.87;;;15.30;;
45368;SDS011;51342;55.250;37.668;2023-11-19T12:51:30;30.43;;;17.20;;
45368;SDS011;51342;55.250;37.668;2023-11-19T12:54:03;27.23;;;14.77;;
45368;SDS011;51342;55.250;37.668;2023-11-19T12:56:35;26.27;;;14.40;;
45368;SDS011;51342;55.250;37.668;2023-11-19T12:59:11;32.70;;;19.53;;
45368;SDS011;51342;55.250;37.668;2023-11-19T13:04:30;32.22;;;15.90;;
45368;SDS011;51342;55.250;37.668;2023-11-19T13:07:02;28.57;;;15.43;;
45368;SDS011;51342;55.250;37.668;2023-11-19T13:09:35;27.63;;;15.10;;
45368;SDS011;51342;55.250;37.668;2023-11-19T13:12:13;31.53;;;15.93;;
45368;SDS011;51342;55.250;37.668;2023-11-19T13:14:46;31.50;;;15.20;;
45368;SDS011;51342;55.250;37.668;2023-11-19T13:17:18;29.60;;;15.10;;
45368;SDS011;51342;55.250;37.668;2023-11-19T13:19:49;50.17;;;25.97;;
45368;SDS011;51342;55.250;37.668;2023-11-19T13:22:21;44.67;;;24.47;;
45368;SDS011;51342;55.250;37.668;2023-11-19T13:24:53;53.70;;;25.60;;
45368;SDS011;51342;55.250;37.668;2023-11-19T13:27:24;47.60;;;23.63;;
45368;SDS011;51342;55.250;37.668;2023-11-19T13:29:56;38.07;;;21.23;;
45368;SDS011;51342;55.250;37.668;2023-11-19T13:32:27;34.67;;;19.83;;
45368;SDS011;51342;55.250;37.668;2023-11-19T13:34:58;32.50;;;17.37;;
45368;SDS011;51342;55.250;37.668;2023-11-19T13:37:31;33.10;;;17.13;;
45368;SDS011;51342;55.250;37.668;2023-11-19T13:40:03;24.50;;;15.67;;
45368;SDS011;51342;55.250;37.668;2023-11-19T13:42:38;28.93;;;15.83;;
45368;SDS011;51342;55.250;37.668;2023-11-19T13:45:12;30.17;;;14.88;;
45368;SDS011;51342;55.250;37.668;2023-11-19T13:47:45;25.97;;;14.60;;
45368;SDS011;51342;55.250;37.668;2023-11-19T13:50:17;28.17;;;15.50;;
45368;SDS011;51342;55.250;37.668;2023-11-19T13:52:48;26.97;;;15.27;;
45368;SDS011;51342;55.250;37.668;2023-11-19T13:55:20;31.33;;;16.13;;
45368;SDS011;51342;55.250;37.668;2023-11-19T13:57:53;31.33;;;15.87;;
45368;SDS011;51342;55.250;37.668;2023-11-19T14:00:25;31.57;;;16.50;;
45368;SDS011;51342;55.250;37.668;2023-11-19T14:02:59;28.23;;;14.70;;
45368;SDS011;51342;55.250;37.668;2023-11-19T14:05:31;45.13;;;22.63;;
45368;SDS011;51342;55.250;37.668;2023-11-19T14:08:02;45.20;;;22.53;;
45368;SDS011;51342;55.250;37.668;2023-11-19T14:10:34;36.23;;;19.33;;
45368;SDS011;51342;55.250;37.668;2023-11-19T14:13:07;40.17;;;21.67;;
45368;SDS011;51342;55.250;37.668;2023-11-19T14:15:38;31.63;;;16.37;;
45368;SDS011;51342;55.250;37.668;2023-11-19T14:18:13;28.23;;;14.70;;
45368;SDS011;51342;55.250;37.668;2023-11-19T14:20:45;32.13;;;15.93;;
45368;SDS011;51342;55.250;37.668;2023-11-19T14:23:16;27.97;;;14.07;;
45368;SDS011;51342;55.250;37.668;2023-11-19T14:25:49;30.03;;;14.90;;
45368;SDS011;51342;55.250;37.668;2023-11-19T14:28:20;30.07;;;15.20;;
45368;SDS011;51342;55.250;37.668;2023-11-19T14:30:52;28.90;;;15.30;;
45368;SDS011;51342;55.250;37.668;2023-11-19T14:33:27;29.97;;;15.50;;
45368;SDS011;51342;55.250;37.668;2023-11-19T14:35:59;28.63;;;14.60;;
45368;SDS011;51342;55.250;37.668;2023-11-19T14:38:30;30.90;;;15.60;;
45368;SDS011;51342;55.250;37.668;2023-11-19T14:41:03;38.17;;;18.77;;
45368;SDS011;51342;55.250;37.668;2023-11-19T14:43:36;29.00;;;15.13;;
45368;SDS011;51342;55.250;37.668;2023-11-19T14:46:07;35.77;;;16.77;;
45368;SDS011;51342;55.250;37.668;2023-11-19T14:48:39;35.67;;;17.37;;
45368;SDS011;51342;55.250;37.668;2023-11-19T14:51:11;31.93;;;15.83;;
45368;SDS011;51342;55.250;37.668;2023-11-19T14:53:43;30.53;;;15.30;;
45368;SDS011;51342;55.250;37.668;2023-11-19T14:56:14;27.30;;;15.33;;
45368;SDS011;51342;55.250;37.668;2023-11-19T14:58:46;27.87;;;14.63;;
45368;SDS011;51342;55.250;37.668;2023-11-19T15:01:18;30.40;;;15.03;;
45368;SDS011;51342;55.250;37.668;2023-11-19T15:03:50;28.60;;;14.50;;
45368;SDS011;51342;55.250;37.668;2023-11-19T15:06:25;29.00;;;14.60;;